sensor_id;sensor_type;location;lat;lon;timestamp;P1;durP1;ratioP1;P2;durP2;ratioP2
15412;SDS011;7805;49.554;7.632;2022-12-05T00:00:51;29.43;;;18.00;;
15412;SDS011;7805;49.554;7.632;2022-12-05T00:03:18;22.17;;;13.50;;
15412;SDS011;7805;49.554;7.632;2022-12-05T00:05:44;17.83;;;11.37;;
15412;SDS011;7805;49.554;7.632;2022-12-05T00:08:09;16.83;;;11.30;;
15412;SDS011;7805;49.554;7.632;2022-12-05T00:10:35;16.73;;;10.80;;
15412;SDS011;7805;49.554;7.632;2022-12-05T00:13:01;19.00;;;11.60;;
15412;SDS011;7805;49.554;7.632;2022-12-05T00:15:27;21.73;;;13.97;;
15412;SDS011;7805;49.554;7.632;2022-12-05T00:17:53;25.33;;;16.43;;
15412;SDS011;7805;49.554;7.632;2022-12-05T00:20:18;19.80;;;13.53;;
15412;SDS011;7805;49.554;7.632;2022-12-05T00:22:45;17.87;;;10.70;;
15412;SDS011;7805;49.554;7.632;2022-12-05T00:25:10;16.40;;;11.10;;
15412;SDS011;7805;49.554;7.632;2022-12-05T00:27:36;16.53;;;10.93;;
15412;SDS011;7805;49.554;7.632;2022-12-05T00:30:01;14.47;;;10.37;;
15412;SDS011;7805;49.554;7.632;2022-12-05T00:32:28;17.27;;;10.50;;
15412;SDS011;7805;49.554;7.632;2022-12-05T00:34:54;15.53;;;10.40;;
15412;SDS011;7805;49.554;7.632;2022-12-05T00:37:20;15.87;;;10.10;;
15412;SDS011;7805;49.554;7.632;2022-12-05T00:39:46;15.77;;;10.60;;
15412;SDS011;7805;49.554;7.632;2022-12-05T00:42:11;15.37;;;10.37;;
15412;SDS011;7805;49.554;7.632;2022-12-05T00:44:37;15.80;;;10.73;;
15412;SDS011;7805;49.554;7.632;2022-12-05T00:47:02;15.40;;;10.30;;
15412;SDS011;7805;49.554;7.632;2022-12-05T00:49:28;17.00;;;10.67;;
15412;SDS011;7805;49.554;7.632;2022-12-05T00:51:53;16.60;;;10.60;;
15412;SDS011;7805;49.554;7.632;2022-12-05T00:54:19;15.47;;;11.00;;
15412;SDS011;7805;49.554;7.632;2022-12-05T00:56:44;15.33;;;10.50;;
15412;SDS011;7805;49.554;7.632;2022-12-05T00:59:15;22.83;;;11.50;;
15412;SDS011;7805;49.554;7.632;2022-12-05T01:01:43;15.70;;;11.07;;
15412;SDS011;7805;49.554;7.632;2022-12-05T01:04:10;16.53;;;11.47;;
15412;SDS011;7805;49.554;7.632;2022-12-05T01:06:38;17.93;;;11.83;;
15412;SDS011;7805;49.554;7.632;2022-12-05T01:09:04;15.93;;;11.03;;
15412;SDS011;7805;49.554;7.632;2022-12-05T01:11:30;16.67;;;11.30;;
15412;SDS011;7805;49.554;7.632;2022-12-05T01:13:56;17.80;;;11.80;;
15412;SDS011;7805;49.554;7.632;2022-12-05T01:16:32;18.00;;;11.63;;
15412;SDS011;7805;49.554;7.632;2022-12-05T01:19:01;15.93;;;10.87;;
15412;SDS011;7805;49.554;7.632;2022-12-05T01:21:29;18.43;;;11.80;;
15412;SDS011;7805;49.554;7.632;2022-12-05T01:23:55;17.40;;;10.07;;
15412;SDS011;7805;49.554;7.632;2022-12-05T01:26:21;17.13;;;10.70;;
15412;SDS011;7805;49.554;7.632;2022-12-05T01:28:47;17.77;;;11.00;;
15412;SDS011;7805;49.554;7.632;2022-12-05T01:31:27;16.13;;;11.23;;
15412;SDS011;7805;49.554;7.632;2022-12-05T01:33:58;15.27;;;10.57;;
15412;SDS011;7805;49.554;7.632;2022-12-05T01:36:26;14.00;;;10.33;;
15412;SDS011;7805;49.554;7.632;2022-12-05T01:38:52;16.73;;;11.30;;
15412;SDS011;7805;49.554;7.632;2022-12-05T01:41:20;17.43;;;11.17;;
15412;SDS011;7805;49.554;7.632;2022-12-05T01:46:31;20.17;;;12.37;;
15412;SDS011;7805;49.554;7.632;2022-12-05T01:51:32;15.30;;;10.63;;
15412;SDS011;7805;49.554;7.632;2022-12-05T01:53:59;17.07;;;11.30;;
15412;SDS011;7805;49.554;7.632;2022-12-05T01:56:25;19.63;;;12.40;;
15412;SDS011;7805;49.554;7.632;2022-12-05T01:58:51;16.20;;;10.30;;
15412;SDS011;7805;49.554;7.632;2022-12-05T02:01:18;17.47;;;11.17;;
15412;SDS011;7805;49.554;7.632;2022-12-05T02:03:45;19.93;;;12.83;;
15412;SDS011;7805;49.554;7.632;2022-12-05T02:06:14;18.87;;;13.37;;
15412;SDS011;7805;49.554;7.632;2022-12-05T02:08:40;21.63;;;14.97;;
15412;SDS011;7805;49.554;7.632;2022-12-05T02:11:07;22.77;;;15.60;;
15412;SDS011;7805;49.554;7.632;2022-12-05T02:30:37;17.30;;;10.80;;
15412;SDS011;7805;49.554;7.632;2022-12-05T02:34:30;14.57;;;10.30;;
15412;SDS011;7805;49.554;7.632;2022-12-05T02:36:33;14.93;;;10.47;;
15412;SDS011;7805;49.554;7.632;2022-12-05T02:39:16;16.30;;;10.17;;
15412;SDS011;7805;49.554;7.632;2022-12-05T02:44:56;14.93;;;9.73;;
15412;SDS011;7805;49.554;7.632;2022-12-05T02:47:26;16.93;;;11.20;;
15412;SDS011;7805;49.554;7.632;2022-12-05T02:49:55;15.53;;;10.73;;
15412;SDS011;7805;49.554;7.632;2022-12-05T02:52:22;19.93;;;11.73;;
15412;SDS011;7805;49.554;7.632;2022-12-05T02:54:49;16.30;;;10.80;;
15412;SDS011;7805;49.554;7.632;2022-12-05T02:57:16;17.87;;;11.33;;
15412;SDS011;7805;49.554;7.632;2022-12-05T02:59:43;21.97;;;11.97;;
15412;SDS011;7805;49.554;7.632;2022-12-05T03:02:19;17.23;;;11.43;;
15412;SDS011;7805;49.554;7.632;2022-12-05T03:04:56;20.93;;;11.53;;
15412;SDS011;7805;49.554;7.632;2022-12-05T03:07:25;15.87;;;10.60;;
15412;SDS011;7805;49.554;7.632;2022-12-05T03:10:03;17.87;;;11.10;;
15412;SDS011;7805;49.554;7.632;2022-12-05T03:12:36;18.10;;;10.20;;
15412;SDS011;7805;49.554;7.632;2022-12-05T03:15:11;15.77;;;10.87;;
15412;SDS011;7805;49.554;7.632;2022-12-05T03:17:46;16.30;;;11.60;;
15412;SDS011;7805;49.554;7.632;2022-12-05T03:20:26;19.43;;;11.87;;
15412;SDS011;7805;49.554;7.632;2022-12-05T03:22:56;17.73;;;11.07;;
15412;SDS011;7805;49.554;7.632;2022-12-05T03:28:53;17.17;;;11.77;;
15412;SDS011;7805;49.554;7.632;2022-12-05T03:31:26;17.17;;;11.57;;
15412;SDS011;7805;49.554;7.632;2022-12-05T03:34:04;18.53;;;12.10;;
15412;SDS011;7805;49.554;7.632;2022-12-05T03:36:36;22.23;;;13.37;;
15412;SDS011;7805;49.554;7.632;2022-12-05T03:39:07;24.53;;;11.30;;
15412;SDS011;7805;49.554;7.632;2022-12-05T03:41:40;19.17;;;11.23;;
15412;SDS011;7805;49.554;7.632;2022-12-05T03:44:16;20.80;;;12.70;;
15412;SDS011;7805;49.554;7.632;2022-12-05T03:47:05;21.67;;;13.00;;
15412;SDS011;7805;49.554;7.632;2022-12-05T03:49:40;24.17;;;13.47;;
15412;SDS011;7805;49.554;7.632;2022-12-05T03:52:14;21.10;;;12.30;;
15412;SDS011;7805;49.554;7.632;2022-12-05T03:54:48;22.50;;;14.00;;
15412;SDS011;7805;49.554;7.632;2022-12-05T04:00:31;28.50;;;15.20;;
15412;SDS011;7805;49.554;7.632;2022-12-05T04:05:40;23.93;;;14.97;;
15412;SDS011;7805;49.554;7.632;2022-12-05T04:08:21;28.77;;;15.67;;
15412;SDS011;7805;49.554;7.632;2022-12-05T04:11:02;31.13;;;16.73;;
15412;SDS011;7805;49.554;7.632;2022-12-05T04:13:33;29.70;;;16.00;;
15412;SDS011;7805;49.554;7.632;2022-12-05T04:16:10;27.73;;;15.70;;
15412;SDS011;7805;49.554;7.632;2022-12-05T04:19:22;27.57;;;14.43;;
15412;SDS011;7805;49.554;7.632;2022-12-05T04:21:52;32.20;;;16.07;;
15412;SDS011;7805;49.554;7.632;2022-12-05T04:24:21;26.10;;;14.57;;
15412;SDS011;7805;49.554;7.632;2022-12-05T04:27:16;25.20;;;14.80;;
15412;SDS011;7805;49.554;7.632;2022-12-05T04:30:11;29.53;;;15.53;;
15412;SDS011;7805;49.554;7.632;2022-12-05T04:32:49;26.63;;;15.50;;
15412;SDS011;7805;49.554;7.632;2022-12-05T04:35:23;26.37;;;15.60;;
15412;SDS011;7805;49.554;7.632;2022-12-05T04:37:54;28.20;;;15.50;;
15412;SDS011;7805;49.554;7.632;2022-12-05T04:40:33;28.47;;;16.13;;
15412;SDS011;7805;49.554;7.632;2022-12-05T04:43:03;24.13;;;14.70;;
15412;SDS011;7805;49.554;7.632;2022-12-05T04:45:31;25.87;;;15.03;;
15412;SDS011;7805;49.554;7.632;2022-12-05T04:48:00;23.20;;;13.97;;
15412;SDS011;7805;49.554;7.632;2022-12-05T04:50:31;25.33;;;15.30;;
15412;SDS011;7805;49.554;7.632;2022-12-05T04:52:59;24.90;;;15.07;;
15412;SDS011;7805;49.554;7.632;2022-12-05T04:55:26;24.80;;;14.27;;
15412;SDS011;7805;49.554;7.632;2022-12-05T04:58:11;24.03;;;14.47;;
15412;SDS011;7805;49.554;7.632;2022-12-05T05:00:45;20.47;;;13.37;;
15412;SDS011;7805;49.554;7.632;2022-12-05T05:03:18;20.80;;;13.53;;
15412;SDS011;7805;49.554;7.632;2022-12-05T05:05:49;19.53;;;12.77;;
15412;SDS011;7805;49.554;7.632;2022-12-05T05:08:19;20.97;;;13.67;;
15412;SDS011;7805;49.554;7.632;2022-12-05T05:10:50;22.37;;;14.47;;
15412;SDS011;7805;49.554;7.632;2022-12-05T05:13:35;25.23;;;14.10;;
15412;SDS011;7805;49.554;7.632;2022-12-05T05:16:01;26.63;;;15.27;;
15412;SDS011;7805;49.554;7.632;2022-12-05T05:18:27;25.90;;;14.70;;
15412;SDS011;7805;49.554;7.632;2022-12-05T05:20:53;20.83;;;13.13;;
15412;SDS011;7805;49.554;7.632;2022-12-05T05:23:18;21.77;;;13.73;;
15412;SDS011;7805;49.554;7.632;2022-12-05T05:25:44;24.17;;;14.87;;
15412;SDS011;7805;49.554;7.632;2022-12-05T05:28:09;19.57;;;12.50;;
15412;SDS011;7805;49.554;7.632;2022-12-05T05:30:35;24.17;;;15.27;;
15412;SDS011;7805;49.554;7.632;2022-12-05T05:33:00;20.43;;;12.93;;
15412;SDS011;7805;49.554;7.632;2022-12-05T05:35:26;21.20;;;12.87;;
15412;SDS011;7805;49.554;7.632;2022-12-05T05:37:51;23.83;;;14.43;;
15412;SDS011;7805;49.554;7.632;2022-12-05T05:40:17;24.00;;;13.30;;
15412;SDS011;7805;49.554;7.632;2022-12-05T05:42:47;25.23;;;14.00;;
15412;SDS011;7805;49.554;7.632;2022-12-05T05:45:13;21.60;;;13.27;;
15412;SDS011;7805;49.554;7.632;2022-12-05T05:47:40;24.53;;;13.83;;
15412;SDS011;7805;49.554;7.632;2022-12-05T05:50:06;21.33;;;14.10;;
15412;SDS011;7805;49.554;7.632;2022-12-05T05:52:33;27.27;;;14.13;;
15412;SDS011;7805;49.554;7.632;2022-12-05T05:55:01;26.20;;;14.70;;
15412;SDS011;7805;49.554;7.632;2022-12-05T05:57:29;19.83;;;12.13;;
15412;SDS011;7805;49.554;7.632;2022-12-05T05:59:55;19.87;;;12.63;;
15412;SDS011;7805;49.554;7.632;2022-12-05T06:02:20;20.67;;;14.13;;
15412;SDS011;7805;49.554;7.632;2022-12-05T06:04:46;21.03;;;12.90;;
15412;SDS011;7805;49.554;7.632;2022-12-05T06:07:12;21.37;;;13.90;;
15412;SDS011;7805;49.554;7.632;2022-12-05T06:09:38;23.40;;;13.87;;
15412;SDS011;7805;49.554;7.632;2022-12-05T06:12:04;23.23;;;13.67;;
15412;SDS011;7805;49.554;7.632;2022-12-05T06:14:29;23.90;;;14.23;;
15412;SDS011;7805;49.554;7.632;2022-12-05T06:16:55;24.93;;;13.73;;
15412;SDS011;7805;49.554;7.632;2022-12-05T06:19:21;25.87;;;14.50;;
15412;SDS011;7805;49.554;7.632;2022-12-05T06:21:47;23.53;;;14.77;;
15412;SDS011;7805;49.554;7.632;2022-12-05T06:24:14;27.73;;;15.73;;
15412;SDS011;7805;49.554;7.632;2022-12-05T06:26:40;28.07;;;17.50;;
15412;SDS011;7805;49.554;7.632;2022-12-05T06:29:07;29.17;;;19.17;;
15412;SDS011;7805;49.554;7.632;2022-12-05T06:31:33;30.40;;;18.27;;
15412;SDS011;7805;49.554;7.632;2022-12-05T06:34:01;104.37;;;56.80;;
15412;SDS011;7805;49.554;7.632;2022-12-05T06:36:28;75.67;;;44.03;;
15412;SDS011;7805;49.554;7.632;2022-12-05T06:38:55;47.37;;;27.13;;
15412;SDS011;7805;49.554;7.632;2022-12-05T06:41:21;34.20;;;21.17;;
15412;SDS011;7805;49.554;7.632;2022-12-05T06:43:50;33.63;;;19.40;;
15412;SDS011;7805;49.554;7.632;2022-12-05T06:46:18;23.13;;;14.90;;
15412;SDS011;7805;49.554;7.632;2022-12-05T06:48:44;23.17;;;12.87;;
15412;SDS011;7805;49.554;7.632;2022-12-05T06:51:10;27.17;;;15.90;;
15412;SDS011;7805;49.554;7.632;2022-12-05T06:53:38;27.43;;;14.60;;
15412;SDS011;7805;49.554;7.632;2022-12-05T06:56:04;25.63;;;14.60;;
15412;SDS011;7805;49.554;7.632;2022-12-05T06:58:35;23.27;;;13.57;;
15412;SDS011;7805;49.554;7.632;2022-12-05T07:01:01;40.27;;;22.03;;
15412;SDS011;7805;49.554;7.632;2022-12-05T07:03:49;73.80;;;39.10;;
15412;SDS011;7805;49.554;7.632;2022-12-05T07:06:15;52.97;;;28.97;;
15412;SDS011;7805;49.554;7.632;2022-12-05T07:08:41;44.23;;;24.27;;
15412;SDS011;7805;49.554;7.632;2022-12-05T07:11:07;30.07;;;18.97;;
15412;SDS011;7805;49.554;7.632;2022-12-05T07:13:33;28.60;;;18.40;;
15412;SDS011;7805;49.554;7.632;2022-12-05T07:15:59;31.27;;;18.23;;
15412;SDS011;7805;49.554;7.632;2022-12-05T07:18:25;33.20;;;19.23;;
15412;SDS011;7805;49.554;7.632;2022-12-05T07:20:54;41.77;;;23.43;;
15412;SDS011;7805;49.554;7.632;2022-12-05T07:23:24;36.87;;;21.73;;
15412;SDS011;7805;49.554;7.632;2022-12-05T07:25:51;32.20;;;18.93;;
15412;SDS011;7805;49.554;7.632;2022-12-05T07:28:17;29.77;;;17.17;;
15412;SDS011;7805;49.554;7.632;2022-12-05T07:30:42;33.13;;;17.83;;
15412;SDS011;7805;49.554;7.632;2022-12-05T07:33:08;23.77;;;13.70;;
15412;SDS011;7805;49.554;7.632;2022-12-05T07:35:33;26.47;;;16.33;;
15412;SDS011;7805;49.554;7.632;2022-12-05T07:37:59;26.83;;;17.07;;
15412;SDS011;7805;49.554;7.632;2022-12-05T07:40:24;28.27;;;16.53;;
15412;SDS011;7805;49.554;7.632;2022-12-05T07:42:50;22.53;;;13.13;;
15412;SDS011;7805;49.554;7.632;2022-12-05T07:45:17;22.63;;;14.30;;
15412;SDS011;7805;49.554;7.632;2022-12-05T07:47:43;21.57;;;12.47;;
15412;SDS011;7805;49.554;7.632;2022-12-05T07:50:09;22.07;;;13.47;;
15412;SDS011;7805;49.554;7.632;2022-12-05T07:52:35;30.40;;;15.20;;
15412;SDS011;7805;49.554;7.632;2022-12-05T07:55:01;26.80;;;15.83;;
15412;SDS011;7805;49.554;7.632;2022-12-05T07:57:30;33.73;;;19.87;;
15412;SDS011;7805;49.554;7.632;2022-12-05T07:59:55;28.63;;;17.77;;
15412;SDS011;7805;49.554;7.632;2022-12-05T08:02:21;29.17;;;16.50;;
15412;SDS011;7805;49.554;7.632;2022-12-05T08:04:47;21.17;;;11.03;;
15412;SDS011;7805;49.554;7.632;2022-12-05T08:07:13;20.23;;;11.80;;
15412;SDS011;7805;49.554;7.632;2022-12-05T08:09:38;18.10;;;9.80;;
15412;SDS011;7805;49.554;7.632;2022-12-05T08:12:04;16.57;;;9.93;;
15412;SDS011;7805;49.554;7.632;2022-12-05T08:14:30;20.67;;;11.60;;
15412;SDS011;7805;49.554;7.632;2022-12-05T08:16:55;17.83;;;11.47;;
15412;SDS011;7805;49.554;7.632;2022-12-05T08:19:21;19.63;;;11.37;;
15412;SDS011;7805;49.554;7.632;2022-12-05T08:21:47;20.80;;;12.60;;
15412;SDS011;7805;49.554;7.632;2022-12-05T08:24:12;19.33;;;11.37;;
15412;SDS011;7805;49.554;7.632;2022-12-05T08:26:39;18.37;;;10.43;;
15412;SDS011;7805;49.554;7.632;2022-12-05T08:29:05;19.00;;;12.93;;
15412;SDS011;7805;49.554;7.632;2022-12-05T08:31:38;17.23;;;10.63;;
15412;SDS011;7805;49.554;7.632;2022-12-05T08:34:06;16.37;;;10.30;;
15412;SDS011;7805;49.554;7.632;2022-12-05T08:36:32;17.90;;;10.30;;
15412;SDS011;7805;49.554;7.632;2022-12-05T08:38:58;19.20;;;11.03;;
15412;SDS011;7805;49.554;7.632;2022-12-05T08:41:25;19.10;;;11.30;;
15412;SDS011;7805;49.554;7.632;2022-12-05T08:43:59;16.53;;;10.17;;
15412;SDS011;7805;49.554;7.632;2022-12-05T08:46:29;20.10;;;11.27;;
15412;SDS011;7805;49.554;7.632;2022-12-05T08:48:56;15.13;;;9.33;;
15412;SDS011;7805;49.554;7.632;2022-12-05T08:51:22;17.00;;;9.97;;
15412;SDS011;7805;49.554;7.632;2022-12-05T08:53:47;17.03;;;10.60;;
15412;SDS011;7805;49.554;7.632;2022-12-05T08:56:13;17.30;;;10.40;;
15412;SDS011;7805;49.554;7.632;2022-12-05T08:58:39;18.10;;;10.40;;
15412;SDS011;7805;49.554;7.632;2022-12-05T09:01:09;18.60;;;11.00;;
15412;SDS011;7805;49.554;7.632;2022-12-05T09:03:35;17.10;;;10.50;;
15412;SDS011;7805;49.554;7.632;2022-12-05T09:06:05;21.43;;;10.97;;
15412;SDS011;7805;49.554;7.632;2022-12-05T09:08:34;22.07;;;13.00;;
15412;SDS011;7805;49.554;7.632;2022-12-05T09:11:03;21.63;;;13.60;;
15412;SDS011;7805;49.554;7.632;2022-12-05T09:13:38;20.80;;;13.13;;
15412;SDS011;7805;49.554;7.632;2022-12-05T09:16:08;21.17;;;12.30;;
15412;SDS011;7805;49.554;7.632;2022-12-05T09:18:56;22.03;;;13.27;;
15412;SDS011;7805;49.554;7.632;2022-12-05T09:21:24;21.50;;;12.97;;
15412;SDS011;7805;49.554;7.632;2022-12-05T09:23:51;16.10;;;10.60;;
15412;SDS011;7805;49.554;7.632;2022-12-05T09:26:18;20.50;;;11.07;;
15412;SDS011;7805;49.554;7.632;2022-12-05T09:28:47;22.93;;;13.50;;
15412;SDS011;7805;49.554;7.632;2022-12-05T09:31:14;24.77;;;15.63;;
15412;SDS011;7805;49.554;7.632;2022-12-05T09:33:41;20.50;;;13.50;;
15412;SDS011;7805;49.554;7.632;2022-12-05T09:36:10;18.37;;;11.80;;
15412;SDS011;7805;49.554;7.632;2022-12-05T09:38:47;19.43;;;11.63;;
15412;SDS011;7805;49.554;7.632;2022-12-05T09:46:57;20.40;;;13.20;;
15412;SDS011;7805;49.554;7.632;2022-12-05T09:49:29;20.50;;;11.87;;
15412;SDS011;7805;49.554;7.632;2022-12-05T09:51:57;20.43;;;11.73;;
15412;SDS011;7805;49.554;7.632;2022-12-05T09:54:24;22.27;;;11.93;;
15412;SDS011;7805;49.554;7.632;2022-12-05T09:56:52;18.37;;;11.77;;
15412;SDS011;7805;49.554;7.632;2022-12-05T09:59:18;21.93;;;15.80;;
15412;SDS011;7805;49.554;7.632;2022-12-05T10:01:54;25.80;;;14.50;;
15412;SDS011;7805;49.554;7.632;2022-12-05T10:04:54;22.83;;;14.07;;
15412;SDS011;7805;49.554;7.632;2022-12-05T10:15:58;20.53;;;13.33;;
15412;SDS011;7805;49.554;7.632;2022-12-05T10:21:04;19.73;;;11.77;;
15412;SDS011;7805;49.554;7.632;2022-12-05T10:26:31;15.40;;;11.10;;
15412;SDS011;7805;49.554;7.632;2022-12-05T10:29:04;18.93;;;11.47;;
15412;SDS011;7805;49.554;7.632;2022-12-05T10:31:38;15.30;;;9.90;;
15412;SDS011;7805;49.554;7.632;2022-12-05T10:34:12;16.60;;;9.67;;
15412;SDS011;7805;49.554;7.632;2022-12-05T10:36:52;12.43;;;8.77;;
15412;SDS011;7805;49.554;7.632;2022-12-05T10:39:25;13.83;;;8.60;;
15412;SDS011;7805;49.554;7.632;2022-12-05T10:41:51;33.93;;;23.50;;
15412;SDS011;7805;49.554;7.632;2022-12-05T10:44:17;31.33;;;23.47;;
15412;SDS011;7805;49.554;7.632;2022-12-05T10:46:43;20.50;;;14.07;;
15412;SDS011;7805;49.554;7.632;2022-12-05T10:49:10;21.37;;;15.23;;
15412;SDS011;7805;49.554;7.632;2022-12-05T10:51:36;23.30;;;15.67;;
15412;SDS011;7805;49.554;7.632;2022-12-05T10:54:07;22.57;;;13.67;;
15412;SDS011;7805;49.554;7.632;2022-12-05T10:56:49;19.57;;;13.30;;
15412;SDS011;7805;49.554;7.632;2022-12-05T10:59:16;16.83;;;11.20;;
15412;SDS011;7805;49.554;7.632;2022-12-05T11:01:51;17.40;;;10.90;;
15412;SDS011;7805;49.554;7.632;2022-12-05T11:04:29;15.13;;;10.37;;
15412;SDS011;7805;49.554;7.632;2022-12-05T11:07:09;11.43;;;9.03;;
15412;SDS011;7805;49.554;7.632;2022-12-05T11:09:47;15.73;;;10.23;;
15412;SDS011;7805;49.554;7.632;2022-12-05T11:12:20;15.10;;;9.47;;
15412;SDS011;7805;49.554;7.632;2022-12-05T11:17:46;16.63;;;10.40;;
15412;SDS011;7805;49.554;7.632;2022-12-05T11:22:48;14.90;;;9.73;;
15412;SDS011;7805;49.554;7.632;2022-12-05T11:25:27;14.30;;;9.10;;
15412;SDS011;7805;49.554;7.632;2022-12-05T11:27:57;18.40;;;10.03;;
15412;SDS011;7805;49.554;7.632;2022-12-05T11:30:25;13.47;;;8.93;;
15412;SDS011;7805;49.554;7.632;2022-12-05T11:35:44;16.70;;;11.80;;
15412;SDS011;7805;49.554;7.632;2022-12-05T11:38:14;15.90;;;10.57;;
15412;SDS011;7805;49.554;7.632;2022-12-05T11:51:50;13.90;;;9.53;;
15412;SDS011;7805;49.554;7.632;2022-12-05T12:08:52;11.23;;;8.37;;
15412;SDS011;7805;49.554;7.632;2022-12-05T12:34:01;14.50;;;9.00;;
15412;SDS011;7805;49.554;7.632;2022-12-05T12:45:39;13.10;;;9.27;;
15412;SDS011;7805;49.554;7.632;2022-12-05T12:50:59;11.93;;;8.47;;
15412;SDS011;7805;49.554;7.632;2022-12-05T12:59:34;12.00;;;8.07;;
15412;SDS011;7805;49.554;7.632;2022-12-05T13:04:36;12.50;;;8.27;;
15412;SDS011;7805;49.554;7.632;2022-12-05T13:07:15;10.87;;;8.07;;
15412;SDS011;7805;49.554;7.632;2022-12-05T13:09:56;10.87;;;7.63;;
15412;SDS011;7805;49.554;7.632;2022-12-05T13:12:27;17.23;;;12.33;;
15412;SDS011;7805;49.554;7.632;2022-12-05T13:14:59;13.37;;;7.83;;
15412;SDS011;7805;49.554;7.632;2022-12-05T13:17:29;13.00;;;9.20;;
15412;SDS011;7805;49.554;7.632;2022-12-05T13:19:56;7.83;;;6.07;;
15412;SDS011;7805;49.554;7.632;2022-12-05T13:22:23;9.03;;;6.43;;
15412;SDS011;7805;49.554;7.632;2022-12-05T13:24:52;7.30;;;5.57;;
15412;SDS011;7805;49.554;7.632;2022-12-05T13:27:20;5.90;;;4.73;;
15412;SDS011;7805;49.554;7.632;2022-12-05T13:29:55;5.83;;;5.33;;
15412;SDS011;7805;49.554;7.632;2022-12-05T13:35:07;5.23;;;4.20;;
15412;SDS011;7805;49.554;7.632;2022-12-05T13:37:35;5.33;;;4.67;;
15412;SDS011;7805;49.554;7.632;2022-12-05T13:43:16;5.33;;;4.60;;
15412;SDS011;7805;49.554;7.632;2022-12-05T13:48:29;5.87;;;4.93;;
15412;SDS011;7805;49.554;7.632;2022-12-05T13:51:03;6.40;;;4.67;;
15412;SDS011;7805;49.554;7.632;2022-12-05T13:58:46;8.80;;;6.33;;
15412;SDS011;7805;49.554;7.632;2022-12-05T14:09:02;6.13;;;5.53;;
15412;SDS011;7805;49.554;7.632;2022-12-05T14:17:31;5.43;;;4.63;;
15412;SDS011;7805;49.554;7.632;2022-12-05T14:25:36;11.43;;;9.67;;
15412;SDS011;7805;49.554;7.632;2022-12-05T14:28:39;12.53;;;10.40;;
15412;SDS011;7805;49.554;7.632;2022-12-05T14:34:08;6.67;;;5.70;;
15412;SDS011;7805;49.554;7.632;2022-12-05T14:36:38;6.67;;;5.60;;
15412;SDS011;7805;49.554;7.632;2022-12-05T14:39:29;9.37;;;8.47;;
15412;SDS011;7805;49.554;7.632;2022-12-05T14:44:50;5.30;;;4.80;;
15412;SDS011;7805;49.554;7.632;2022-12-05T14:47:29;5.50;;;4.80;;
15412;SDS011;7805;49.554;7.632;2022-12-05T14:55:44;6.23;;;4.90;;
15412;SDS011;7805;49.554;7.632;2022-12-05T14:58:31;6.70;;;4.80;;
15412;SDS011;7805;49.554;7.632;2022-12-05T15:03:55;10.40;;;6.60;;
15412;SDS011;7805;49.554;7.632;2022-12-05T15:06:23;8.83;;;7.43;;
15412;SDS011;7805;49.554;7.632;2022-12-05T15:08:50;8.23;;;7.03;;
15412;SDS011;7805;49.554;7.632;2022-12-05T15:11:20;6.33;;;5.63;;
15412;SDS011;7805;49.554;7.632;2022-12-05T15:13:55;5.57;;;5.03;;
15412;SDS011;7805;49.554;7.632;2022-12-05T15:16:25;5.37;;;4.87;;
15412;SDS011;7805;49.554;7.632;2022-12-05T15:18:55;5.13;;;4.30;;
15412;SDS011;7805;49.554;7.632;2022-12-05T15:24:01;4.60;;;4.03;;
15412;SDS011;7805;49.554;7.632;2022-12-05T15:39:55;8.80;;;6.03;;
15412;SDS011;7805;49.554;7.632;2022-12-05T15:42:28;5.17;;;4.40;;
15412;SDS011;7805;49.554;7.632;2022-12-05T15:53:17;5.40;;;4.13;;
15412;SDS011;7805;49.554;7.632;2022-12-05T15:58:24;3.90;;;3.60;;
15412;SDS011;7805;49.554;7.632;2022-12-05T16:00:57;3.90;;;3.60;;
15412;SDS011;7805;49.554;7.632;2022-12-05T16:03:49;4.93;;;3.77;;
15412;SDS011;7805;49.554;7.632;2022-12-05T16:06:29;4.53;;;4.13;;
15412;SDS011;7805;49.554;7.632;2022-12-05T16:08:59;8.10;;;6.30;;
15412;SDS011;7805;49.554;7.632;2022-12-05T16:11:30;6.83;;;6.13;;
15412;SDS011;7805;49.554;7.632;2022-12-05T16:13:57;7.43;;;5.97;;
15412;SDS011;7805;49.554;7.632;2022-12-05T16:16:26;6.80;;;6.10;;
15412;SDS011;7805;49.554;7.632;2022-12-05T16:19:02;5.93;;;5.37;;
15412;SDS011;7805;49.554;7.632;2022-12-05T16:21:33;9.10;;;6.47;;
15412;SDS011;7805;49.554;7.632;2022-12-05T16:24:01;9.63;;;7.43;;
15412;SDS011;7805;49.554;7.632;2022-12-05T16:26:43;11.43;;;8.17;;
15412;SDS011;7805;49.554;7.632;2022-12-05T16:29:26;11.20;;;8.67;;
15412;SDS011;7805;49.554;7.632;2022-12-05T16:31:57;7.30;;;6.60;;
15412;SDS011;7805;49.554;7.632;2022-12-05T16:34:25;7.27;;;6.57;;
15412;SDS011;7805;49.554;7.632;2022-12-05T16:36:53;6.57;;;5.90;;
15412;SDS011;7805;49.554;7.632;2022-12-05T16:39:20;5.77;;;5.17;;
15412;SDS011;7805;49.554;7.632;2022-12-05T16:41:46;9.23;;;6.70;;
15412;SDS011;7805;49.554;7.632;2022-12-05T16:46:51;9.30;;;7.97;;
15412;SDS011;7805;49.554;7.632;2022-12-05T16:51:45;7.00;;;6.30;;
15412;SDS011;7805;49.554;7.632;2022-12-05T16:54:19;8.20;;;6.33;;
15412;SDS011;7805;49.554;7.632;2022-12-05T16:56:44;7.17;;;5.67;;
15412;SDS011;7805;49.554;7.632;2022-12-05T16:59:12;7.37;;;5.80;;
15412;SDS011;7805;49.554;7.632;2022-12-05T17:01:45;5.73;;;4.90;;
15412;SDS011;7805;49.554;7.632;2022-12-05T17:04:11;6.77;;;5.73;;
15412;SDS011;7805;49.554;7.632;2022-12-05T17:06:37;5.70;;;5.10;;
15412;SDS011;7805;49.554;7.632;2022-12-05T17:09:03;7.53;;;4.97;;
15412;SDS011;7805;49.554;7.632;2022-12-05T17:11:29;7.60;;;5.47;;
15412;SDS011;7805;49.554;7.632;2022-12-05T17:13:57;5.57;;;5.03;;
15412;SDS011;7805;49.554;7.632;2022-12-05T17:16:23;5.43;;;4.97;;
15412;SDS011;7805;49.554;7.632;2022-12-05T17:18:52;5.10;;;4.60;;
15412;SDS011;7805;49.554;7.632;2022-12-05T17:21:20;5.90;;;5.30;;
15412;SDS011;7805;49.554;7.632;2022-12-05T17:23:48;6.20;;;5.60;;
15412;SDS011;7805;49.554;7.632;2022-12-05T17:26:15;5.97;;;5.23;;
15412;SDS011;7805;49.554;7.632;2022-12-05T17:28:42;6.40;;;5.80;;
15412;SDS011;7805;49.554;7.632;2022-12-05T17:31:08;5.87;;;5.27;;
15412;SDS011;7805;49.554;7.632;2022-12-05T17:33:40;6.80;;;5.80;;
15412;SDS011;7805;49.554;7.632;2022-12-05T17:36:07;6.27;;;5.67;;
15412;SDS011;7805;49.554;7.632;2022-12-05T17:38:32;6.13;;;5.57;;
15412;SDS011;7805;49.554;7.632;2022-12-05T17:40:58;7.50;;;5.53;;
15412;SDS011;7805;49.554;7.632;2022-12-05T17:43:23;7.83;;;6.07;;
15412;SDS011;7805;49.554;7.632;2022-12-05T17:45:49;6.27;;;5.67;;
15412;SDS011;7805;49.554;7.632;2022-12-05T17:48:15;8.47;;;7.57;;
15412;SDS011;7805;49.554;7.632;2022-12-05T17:50:41;10.30;;;7.90;;
15412;SDS011;7805;49.554;7.632;2022-12-05T17:53:13;11.57;;;8.30;;
15412;SDS011;7805;49.554;7.632;2022-12-05T17:55:40;11.03;;;9.83;;
15412;SDS011;7805;49.554;7.632;2022-12-05T17:58:06;10.23;;;7.93;;
15412;SDS011;7805;49.554;7.632;2022-12-05T18:00:32;9.40;;;8.40;;
15412;SDS011;7805;49.554;7.632;2022-12-05T18:02:58;9.30;;;7.90;;
15412;SDS011;7805;49.554;7.632;2022-12-05T18:05:24;7.67;;;6.70;;
15412;SDS011;7805;49.554;7.632;2022-12-05T18:07:50;7.80;;;7.00;;
15412;SDS011;7805;49.554;7.632;2022-12-05T18:10:19;7.10;;;6.40;;
15412;SDS011;7805;49.554;7.632;2022-12-05T18:12:47;8.53;;;6.57;;
15412;SDS011;7805;49.554;7.632;2022-12-05T18:15:13;9.23;;;6.90;;
15412;SDS011;7805;49.554;7.632;2022-12-05T18:17:39;9.33;;;8.30;;
15412;SDS011;7805;49.554;7.632;2022-12-05T18:20:09;13.77;;;12.37;;
15412;SDS011;7805;49.554;7.632;2022-12-05T18:22:37;20.23;;;15.37;;
15412;SDS011;7805;49.554;7.632;2022-12-05T18:25:03;19.10;;;14.73;;
15412;SDS011;7805;49.554;7.632;2022-12-05T18:27:29;9.67;;;8.67;;